Time;durP1;ratioP1;P1;durP2;ratioP2;P2;SDS_P1;SDS_P2;PMS_P1;PMS_P2;Temp;Humidity;BMP_temperature;BMP_pressure;BME280_temperature;BME280_humidity;BME280_pressure;Samples;Min_cycle;Max_cycle;Signal;HPM_P1;HPM_P2
2023/10/30 00:02:07;;;;;;;2.22;1.05;;;;;;;11.38;65.59;98641.22;10510126;28;20075;-59
2023/10/30 00:07:09;;;;;;;2.47;1.00;;;;;;;11.38;65.81;98639.41;10508807;28;20051;-59
2023/10/30 00:12:11;;;;;;;2.95;0.95;;;;;;;11.24;66.21;98645.81;10510811;28;20036;-59
2023/10/30 00:17:12;;;;;;;6.50;1.42;;;;;;;11.19;66.17;98650.56;10510038;28;20156;-59
2023/10/30 00:22:14;;;;;;;2.55;1.13;;;;;;;11.25;66.23;98652.69;10508608;28;20040;-59
2023/10/30 00:27:16;;;;;;;1.15;0.70;;;;;;;11.40;66.04;98655.00;10508366;28;20039;-59
2023/10/30 00:32:19;;;;;;;2.75;0.95;;;;;;;11.43;66.08;98639.03;10510656;28;20036;-59
2023/10/30 00:37:22;;;;;;;3.50;0.82;;;;;;;11.58;65.86;98643.00;10508728;28;20515;-59
2023/10/30 00:42:27;;;;;;;3.13;1.00;;;;;;;11.62;65.85;98652.25;10488722;28;20123;-59
2023/10/30 00:47:34;;;;;;;1.00;0.90;;;;;;;11.62;65.96;98645.22;10508073;28;20052;-59
2023/10/30 00:52:36;;;;;;;1.40;1.02;;;;;;;11.51;66.01;98652.31;10490885;28;20441;-59
2023/10/30 00:57:39;;;;;;;4.22;1.17;;;;;;;11.48;66.23;98660.44;10491080;28;20511;-59
2023/10/30 01:02:41;;;;;;;4.20;1.30;;;;;;;11.52;65.99;98669.69;10510176;28;20070;-59
2023/10/30 01:07:43;;;;;;;4.40;0.75;;;;;;;11.44;66.16;98664.28;10490666;28;20050;-59
2023/10/30 01:12:46;;;;;;;3.10;1.13;;;;;;;11.29;66.39;98656.69;10517429;28;20048;-59
2023/10/30 01:17:48;;;;;;;1.80;0.80;;;;;;;11.17;66.60;98673.41;10517095;28;20407;-59
2023/10/30 01:22:50;;;;;;;3.00;1.38;;;;;;;11.18;66.77;98676.88;10516223;28;20155;-60
2023/10/30 01:27:52;;;;;;;2.20;0.73;;;;;;;11.16;66.49;98681.41;10496068;28;20044;-59
2023/10/30 01:32:54;;;;;;;1.80;1.10;;;;;;;11.12;66.81;98693.91;10513643;28;20044;-59
2023/10/30 01:37:56;;;;;;;3.83;1.00;;;;;;;11.04;66.97;98682.41;10499493;28;20063;-60
2023/10/30 01:43:00;;;;;;;3.55;1.65;;;;;;;11.06;66.91;98694.41;10497343;28;20412;-59
2023/10/30 01:48:02;;;;;;;4.18;1.30;;;;;;;11.06;67.13;98683.94;10530867;27;20218;-59
2023/10/30 01:53:04;;;;;;;1.75;0.90;;;;;;;11.00;67.57;98680.97;10513521;28;20546;-59
2023/10/30 01:58:07;;;;;;;2.38;1.08;;;;;;;11.08;67.37;98683.81;10514163;28;20052;-59
2023/10/30 02:03:09;;;;;;;3.00;0.90;;;;;;;11.25;67.09;98681.47;10496148;28;20044;-60
2023/10/30 02:08:12;;;;;;;4.13;0.93;;;;;;;11.42;66.93;98694.97;10531535;27;20051;-60
2023/10/30 02:13:14;;;;;;;3.88;1.33;;;;;;;11.49;66.65;98686.47;10512528;28;21018;-59
2023/10/30 02:18:16;;;;;;;2.08;1.08;;;;;;;11.45;66.82;98695.56;10513039;28;20385;-60
2023/10/30 02:23:18;;;;;;;5.22;1.65;;;;;;;11.50;66.70;98679.47;10479713;28;20051;-59
2023/10/30 02:28:20;;;;;;;1.05;0.90;;;;;;;11.41;66.74;98667.13;10513863;28;20051;-59
2023/10/30 02:33:22;;;;;;;1.70;1.17;;;;;;;11.26;66.75;98662.22;10513129;28;20052;-59
2023/10/30 02:38:24;;;;;;;3.35;1.15;;;;;;;11.29;66.67;98655.91;10513853;28;20040;-59
2023/10/30 02:43:26;;;;;;;5.25;2.30;;;;;;;11.32;66.97;98658.25;10494230;28;20052;-59
2023/10/30 02:48:28;;;;;;;3.10;1.60;;;;;;;11.38;66.72;98654.31;10513081;28;20052;-59
2023/10/30 02:53:30;;;;;;;4.05;1.60;;;;;;;11.26;66.67;98648.28;10511301;28;20559;-59
2023/10/30 02:58:32;;;;;;;4.32;1.85;;;;;;;11.19;66.93;98663.66;10494204;28;20052;-59
2023/10/30 03:03:34;;;;;;;5.28;2.03;;;;;;;11.18;66.98;98672.47;10515321;28;20792;-59
2023/10/30 03:08:37;;;;;;;2.50;1.10;;;;;;;11.06;67.14;98668.25;10496155;28;20055;-59
2023/10/30 03:13:39;;;;;;;3.72;1.40;;;;;;;11.01;67.33;98657.28;10532735;27;20045;-59
2023/10/30 03:18:40;;;;;;;1.40;0.90;;;;;;;11.06;67.28;98634.25;10518618;28;20055;-59
2023/10/30 03:23:42;;;;;;;3.65;1.42;;;;;;;10.94;67.45;98629.97;10495593;28;20044;-59
2023/10/30 03:28:45;;;;;;;1.27;0.98;;;;;;;11.01;67.40;98640.78;10519008;28;20049;-59
2023/10/30 03:33:48;;;;;;;3.63;1.30;;;;;;;11.08;67.34;98628.88;10493309;28;20129;-59
2023/10/30 03:38:51;;;;;;;1.85;1.00;;;;;;;11.13;67.31;98635.38;10517784;28;20075;-60
2023/10/30 03:43:53;;;;;;;2.72;1.15;;;;;;;11.12;67.18;98638.97;10499970;28;20050;-59
2023/10/30 03:48:55;;;;;;;1.80;1.10;;;;;;;11.07;67.46;98628.03;10468594;28;20495;-59
2023/10/30 03:54:00;;;;;;;2.65;1.30;;;;;;;10.94;67.41;98650.91;10499176;28;20051;-59
2023/10/30 03:59:02;;;;;;;2.20;1.05;;;;;;;10.94;67.54;98663.97;10516944;28;20044;-59
2023/10/30 04:04:05;;;;;;;2.13;1.30;;;;;;;10.82;67.89;98672.81;10477176;28;20162;-59
2023/10/30 04:09:07;;;;;;;1.40;1.00;;;;;;;10.80;67.92;98666.03;10511648;28;20054;-59
2023/10/30 04:14:09;;;;;;;1.83;0.98;;;;;;;10.87;67.70;98654.13;10508240;28;20044;-59
2023/10/30 04:19:11;;;;;;;2.78;0.90;;;;;;;10.95;67.65;98633.44;10508999;28;20050;-59
2023/10/30 04:24:13;;;;;;;2.50;1.27;;;;;;;10.91;67.60;98630.22;10509141;28;20047;-59
2023/10/30 04:29:15;;;;;;;1.90;0.88;;;;;;;10.89;67.74;98626.91;10508275;28;20121;-59
2023/10/30 04:34:18;;;;;;;2.15;1.50;;;;;;;10.85;67.70;98622.03;10489855;28;20051;-59
2023/10/30 04:39:20;;;;;;;3.10;1.02;;;;;;;10.76;68.12;98613.19;10508653;28;20051;-59
2023/10/30 04:44:22;;;;;;;1.83;1.00;;;;;;;10.77;68.14;98625.28;10507404;28;20051;-59
2023/10/30 04:49:24;;;;;;;2.05;1.25;;;;;;;10.78;67.95;98624.34;10525074;28;20051;-59
2023/10/30 04:54:26;;;;;;;2.97;1.30;;;;;;;10.74;68.31;98635.16;10522992;28;20040;-60
2023/10/30 04:59:28;;;;;;;1.35;1.15;;;;;;;10.55;68.64;98621.91;10508166;28;20051;-59
2023/10/30 05:04:30;;;;;;;2.55;1.48;;;;;;;10.55;68.86;98640.19;10507098;28;20055;-59
2023/10/30 05:09:33;;;;;;;0.82;0.80;;;;;;;10.55;68.95;98651.50;10508900;28;20047;-59
2023/10/30 05:14:34;;;;;;;2.28;1.23;;;;;;;10.48;69.27;98658.19;10507210;28;20044;-59
2023/10/30 05:19:36;;;;;;;3.38;1.15;;;;;;;10.67;69.13;98660.97;10508975;28;20072;-59
2023/10/30 05:24:38;;;;;;;1.98;1.10;;;;;;;10.87;68.72;98668.03;10507673;28;20047;-59
2023/10/30 05:29:40;;;;;;;2.67;1.27;;;;;;;10.88;68.73;98669.72;10508710;28;20040;-60
2023/10/30 05:34:42;;;;;;;1.65;1.33;;;;;;;10.94;68.50;98673.63;10507326;28;20657;-59
2023/10/30 05:39:44;;;;;;;2.88;1.45;;;;;;;10.99;68.25;98674.88;10489843;28;20052;-59
2023/10/30 05:44:46;;;;;;;2.03;1.30;;;;;;;10.94;68.36;98674.44;10508227;28;20535;-60
2023/10/30 05:49:48;;;;;;;1.67;1.10;;;;;;;10.95;68.58;98680.53;10508772;28;20133;-59
2023/10/30 05:54:51;;;;;;;2.22;1.10;;;;;;;11.09;68.25;98694.16;10507065;28;20065;-59
2023/10/30 05:59:53;;;;;;;4.55;1.23;;;;;;;11.12;68.24;98695.69;10514144;28;20058;-59
2023/10/30 06:04:54;;;;;;;3.67;1.27;;;;;;;11.07;68.74;98692.63;10515387;28;20044;-59
2023/10/30 06:09:57;;;;;;;3.45;1.17;;;;;;;11.10;68.64;98701.06;10513709;28;20048;-59
2023/10/30 06:14:59;;;;;;;1.90;1.10;;;;;;;11.11;68.70;98700.09;10511430;28;20052;-59
2023/10/30 06:20:01;;;;;;;2.08;1.58;;;;;;;11.10;68.93;98705.44;10508724;28;20496;-59
2023/10/30 06:25:04;;;;;;;2.47;1.40;;;;;;;11.01;69.11;98703.56;10501647;28;20055;-59
2023/10/30 06:30:07;;;;;;;1.52;0.98;;;;;;;10.91;69.54;98700.03;10499859;28;20048;-60
2023/10/30 06:35:09;;;;;;;5.13;1.33;;;;;;;10.82;69.78;98700.75;10499176;28;20138;-59
2023/10/30 06:40:12;;;;;;;3.80;1.83;;;;;;;10.85;69.63;98685.63;10505705;28;20048;-59
2023/10/30 06:45:14;;;;;;;2.60;1.40;;;;;;;10.95;69.86;98672.66;10502582;28;20051;-60
2023/10/30 06:50:16;;;;;;;1.58;1.00;;;;;;;10.85;69.85;98669.09;10503503;28;20047;-59
2023/10/30 06:55:17;;;;;;;2.50;1.50;;;;;;;10.98;69.73;98683.72;10499061;28;20051;-60
2023/10/30 07:00:20;;;;;;;2.10;1.33;;;;;;;11.04;69.96;98688.47;10527614;28;20845;-59
2023/10/30 07:05:22;;;;;;;1.48;1.05;;;;;;;11.15;69.71;98691.03;10510663;28;20040;-59
2023/10/30 07:10:24;;;;;;;1.73;0.88;;;;;;;11.29;70.09;98685.50;10506718;28;20044;-60
2023/10/30 07:15:26;;;;;;;1.00;0.80;;;;;;;11.32;69.65;98692.28;10512786;28;20071;-60
2023/10/30 07:20:28;;;;;;;1.15;0.80;;;;;;;11.43;69.57;98684.38;10511400;28;20464;-59
2023/10/30 07:25:30;;;;;;;0.88;0.80;;;;;;;11.54;69.55;98714.91;10510170;28;20044;-60
2023/10/30 07:30:33;;;;;;;1.13;0.80;;;;;;;11.40;69.81;98720.47;10503439;28;20477;-60
2023/10/30 07:35:35;;;;;;;1.80;1.05;;;;;;;11.41;70.03;98711.63;10485500;28;20047;-59
2023/10/30 07:40:37;;;;;;;1.30;0.68;;;;;;;11.60;69.82;98702.13;10489804;28;20399;-61
2023/10/30 07:45:40;;;;;;;1.42;0.82;;;;;;;11.68;69.61;98704.13;10507873;28;20036;-61
2023/10/30 07:50:43;;;;;;;0.90;0.60;;;;;;;11.75;69.46;98698.22;10509167;28;20131;-61
2023/10/30 07:55:48;;;;;;;1.52;1.00;;;;;;;11.61;69.76;98690.69;10507018;28;20055;-61
2023/10/30 08:00:52;;;;;;;1.33;0.77;;;;;;;11.65;70.00;98701.75;10498306;28;20048;-61
2023/10/30 08:05:59;;;;;;;1.15;0.80;;;;;;;11.73;69.58;98689.66;10502537;28;20385;-61
2023/10/30 08:11:02;;;;;;;3.00;1.08;;;;;;;11.79;69.56;98688.31;10503498;28;20400;-62
2023/10/30 08:16:05;;;;;;;0.98;0.80;;;;;;;11.94;69.61;98684.41;10463125;28;20252;-62
2023/10/30 08:21:07;;;;;;;2.92;1.00;;;;;;;12.08;69.23;98670.97;10444474;28;20444;-62
2023/10/30 08:26:09;;;;;;;2.05;0.90;;;;;;;12.22;68.77;98669.75;10460373;28;20056;-61
2023/10/30 08:31:11;;;;;;;0.98;0.57;;;;;;;12.18;68.95;98677.06;10462570;28;20140;-62
2023/10/30 08:36:23;;;;;;;0.40;0.40;;;;;;;12.32;68.54;98671.50;10493413;28;20053;-61
2023/10/30 08:41:26;;;;;;;0.70;0.70;;;;;;;12.39;68.87;98666.56;10459890;28;20412;-61
2023/10/30 08:46:28;;;;;;;2.08;0.80;;;;;;;12.48;68.78;98661.34;10453518;28;20568;-62
2023/10/30 08:51:31;;;;;;;3.00;0.98;;;;;;;12.56;68.74;98652.78;10432138;28;20125;-61
2023/10/30 08:56:34;;;;;;;1.00;0.73;;;;;;;12.78;68.57;98674.38;10454015;28;20500;-61
2023/10/30 09:01:36;;;;;;;2.47;0.77;;;;;;;12.74;68.37;98654.63;10459076;28;20052;-61
2023/10/30 09:06:38;;;;;;;1.25;0.82;;;;;;;12.64;68.89;98639.84;10487527;28;20053;-61
2023/10/30 09:11:41;;;;;;;0.77;0.70;;;;;;;13.10;68.50;98628.69;10456145;28;20184;-61
2023/10/30 09:16:43;;;;;;;2.45;1.25;;;;;;;13.32;68.15;98634.47;10457707;28;20487;-61
2023/10/30 09:21:45;;;;;;;0.80;0.70;;;;;;;13.52;68.06;98627.41;10496938;28;20159;-61
2023/10/30 09:26:47;;;;;;;1.00;0.60;;;;;;;13.59;67.81;98620.63;10499087;28;20059;-61
2023/10/30 09:31:50;;;;;;;0.90;0.60;;;;;;;13.88;67.63;98617.91;10501702;28;20125;-61
2023/10/30 09:36:52;;;;;;;0.43;0.43;;;;;;;14.22;67.01;98611.94;10503604;28;20521;-61
2023/10/30 09:41:57;;;;;;;0.50;0.50;;;;;;;14.27;66.92;98601.81;10507060;28;20052;-61
2023/10/30 09:47:02;;;;;;;0.22;0.22;;;;;;;14.23;66.30;98592.56;10503104;28;20105;-61
2023/10/30 09:52:07;;;;;;;0.35;0.32;;;;;;;14.77;65.87;98572.44;10488428;28;20056;-61
2023/10/30 09:57:12;;;;;;;1.40;0.35;;;;;;;14.88;64.73;98573.03;10507088;28;20698;-61
2023/10/30 10:02:15;;;;;;;0.60;0.60;;;;;;;14.90;64.45;98578.16;10506870;28;20056;-61
2023/10/30 10:07:21;;;;;;;0.45;0.43;;;;;;;14.82;64.36;98580.72;10507577;28;20056;-61
2023/10/30 10:12:23;;;;;;;1.13;0.38;;;;;;;14.93;64.45;98583.94;10507423;28;20082;-61
2023/10/30 10:17:26;;;;;;;1.48;0.47;;;;;;;15.19;63.59;98576.06;10508883;28;20056;-61
2023/10/30 10:22:32;;;;;;;0.63;0.35;;;;;;;15.55;63.25;98584.75;10500137;28;20288;-61
2023/10/30 10:27:34;;;;;;;0.93;0.47;;;;;;;15.97;62.21;98577.72;10507040;28;20131;-61
2023/10/30 10:32:37;;;;;;;0.68;0.57;;;;;;;16.05;61.98;98583.03;10481878;28;20488;-61
2023/10/30 10:37:40;;;;;;;0.30;0.28;;;;;;;16.05;59.81;98568.06;10509010;28;20051;-61
2023/10/30 10:42:42;;;;;;;0.68;0.50;;;;;;;15.95;60.60;98551.53;10507144;28;20786;-61
2023/10/30 10:47:44;;;;;;;0.20;0.20;;;;;;;15.95;60.81;98546.25;10506376;28;20071;-61
2023/10/30 10:52:48;;;;;;;0.30;0.30;;;;;;;15.88;59.14;98532.03;10507926;28;20176;-61
2023/10/30 10:58:08;;;;;;;3.10;0.25;;;;;;;16.05;59.54;98525.84;10499858;28;20048;-61
2023/10/30 11:03:11;;;;;;;0.35;0.35;;;;;;;15.86;59.71;98517.34;10507415;28;20043;-60
2023/10/30 11:08:24;;;;;;;0.30;0.30;;;;;;;15.76;59.41;98498.22;10490595;28;20052;-61
2023/10/30 11:13:42;;;;;;;0.43;0.30;;;;;;;16.00;59.55;98487.75;10470565;28;20040;-60
2023/10/30 11:18:52;;;;;;;0.40;0.40;;;;;;;15.78;58.71;98491.81;10511016;28;20044;-60
2023/10/30 11:24:03;;;;;;;0.30;0.30;;;;;;;15.68;59.17;98466.53;10507075;28;20044;-61
2023/10/30 11:29:10;;;;;;;0.32;0.32;;;;;;;15.82;58.12;98465.94;10509422;28;20051;-60
2023/10/30 11:34:13;;;;;;;0.40;0.35;;;;;;;16.13;58.52;98452.03;10512125;28;20040;-60
2023/10/30 11:39:20;;;;;;;0.40;0.40;;;;;;;16.27;58.39;98458.47;10509520;28;20040;-60
2023/10/30 11:44:28;;;;;;;0.55;0.43;;;;;;;16.42;56.50;98442.81;10507948;28;20044;-60
2023/10/30 11:49:32;;;;;;;1.08;0.50;;;;;;;16.26;57.64;98442.81;10504192;28;20055;-60
2023/10/30 11:54:35;;;;;;;0.93;0.50;;;;;;;16.25;57.86;98434.06;10509576;28;20636;-60
2023/10/30 11:59:38;;;;;;;2.55;0.40;;;;;;;16.29;57.34;98430.09;10504755;28;20527;-60
2023/10/30 12:04:40;;;;;;;1.40;0.93;;;;;;;16.05;57.62;98393.16;10488702;28;20040;-60
2023/10/30 12:09:42;;;;;;;0.20;0.20;;;;;;;16.18;57.78;98389.03;10496134;28;20137;-60
2023/10/30 12:14:44;;;;;;;0.35;0.35;;;;;;;16.18;57.25;98377.69;10509064;28;20468;-61
2023/10/30 12:19:46;;;;;;;0.60;0.43;;;;;;;16.21;57.21;98379.97;10459715;28;20455;-60
2023/10/30 12:24:50;;;;;;;0.60;0.60;;;;;;;16.14;57.60;98363.97;10467274;28;20071;-60
2023/10/30 12:29:58;;;;;;;0.85;0.60;;;;;;;16.17;57.79;98342.56;10466234;28;20053;-60
2023/10/30 12:35:16;;;;;;;0.93;0.80;;;;;;;16.30;57.43;98339.44;10459948;28;20044;-60
2023/10/30 12:40:19;;;;;;;0.65;0.52;;;;;;;16.36;57.45;98336.13;10460337;28;20397;-60
2023/10/30 12:45:22;;;;;;;0.55;0.52;;;;;;;16.22;57.48;98329.69;10466242;28;20075;-61
2023/10/30 12:50:24;;;;;;;0.63;0.63;;;;;;;16.20;57.75;98318.47;10495051;28;20044;-60
2023/10/30 12:55:26;;;;;;;0.50;0.50;;;;;;;16.15;57.70;98312.06;10463282;28;20075;-60
2023/10/30 13:00:28;;;;;;;1.55;0.50;;;;;;;16.13;57.22;98299.06;10466055;28;20485;-60
2023/10/30 13:05:30;;;;;;;1.25;0.60;;;;;;;16.05;57.69;98285.88;10466073;28;20101;-60
2023/10/30 13:10:32;;;;;;;0.75;0.70;;;;;;;15.97;57.76;98277.97;10474952;28;20041;-60
2023/10/30 13:15:34;;;;;;;1.08;0.60;;;;;;;15.85;58.27;98263.47;10475829;28;20041;-60
2023/10/30 13:20:37;;;;;;;0.60;0.60;;;;;;;15.61;58.41;98252.94;10508608;28;20207;-60
2023/10/30 13:25:40;;;;;;;1.33;0.75;;;;;;;15.73;58.78;98254.25;10506645;28;20043;-60
2023/10/30 13:30:42;;;;;;;1.00;1.00;;;;;;;15.63;58.58;98250.13;10505524;28;20052;-60
2023/10/30 13:35:44;;;;;;;1.30;0.60;;;;;;;15.51;58.45;98252.22;10518729;28;20047;-60
2023/10/30 13:40:46;;;;;;;2.13;0.90;;;;;;;15.29;58.91;98251.03;10518406;28;20044;-60
2023/10/30 13:45:48;;;;;;;0.63;0.63;;;;;;;15.44;58.11;98235.41;10518869;28;20419;-60
2023/10/30 13:50:50;;;;;;;0.80;0.60;;;;;;;15.37;58.67;98229.13;10517988;28;20068;-60
2023/10/30 13:55:52;;;;;;;0.75;0.68;;;;;;;15.21;58.38;98226.47;10519380;28;20571;-60
2023/10/30 14:00:55;;;;;;;1.40;0.88;;;;;;;15.13;59.04;98223.81;10517803;28;20052;-60
2023/10/30 14:05:57;;;;;;;1.77;1.00;;;;;;;15.07;59.18;98220.03;10515670;28;20044;-60
2023/10/30 14:10:59;;;;;;;1.55;0.98;;;;;;;15.03;59.10;98207.34;10517426;28;20044;-60
2023/10/30 14:16:01;;;;;;;0.63;0.60;;;;;;;14.82;59.29;98193.81;10511676;28;20131;-60
2023/10/30 14:27:39;;;;;;;0.98;0.60;;;;;;;14.32;60.58;98168.28;10546259;27;20182;-59
2023/10/30 14:32:41;;;;;;;0.95;0.60;;;;;;;14.37;60.39;98155.47;10507301;28;20068;-59
2023/10/30 14:37:43;;;;;;;0.60;0.60;;;;;;;14.45;60.25;98160.75;10509246;28;20118;-59
2023/10/30 14:48:32;;;;;;;0.88;0.50;;;;;;;14.37;60.72;98154.66;10484257;22;20055;-68
2023/10/30 14:53:34;;;;;;;0.90;0.70;;;;;;;14.33;60.72;98148.88;10475801;28;20044;-68
2023/10/30 14:58:36;;;;;;;1.38;0.88;;;;;;;14.32;60.77;98143.78;10484574;28;20043;-68
2023/10/30 15:03:39;;;;;;;0.77;0.63;;;;;;;14.34;60.74;98139.19;10481851;28;20090;-68
2023/10/30 15:08:41;;;;;;;0.93;0.80;;;;;;;14.35;61.04;98133.75;10478710;28;20048;-68
2023/10/30 15:13:44;;;;;;;1.83;0.55;;;;;;;14.33;61.00;98133.09;10486789;28;20131;-67
2023/10/30 15:18:47;;;;;;;0.57;0.50;;;;;;;14.28;61.28;98118.78;10483684;28;20047;-68
2023/10/30 15:23:50;;;;;;;2.10;0.60;;;;;;;14.30;60.90;98119.44;10486979;28;20063;-68
2023/10/30 15:28:53;;;;;;;1.17;0.80;;;;;;;14.22;61.10;98122.88;10483375;28;20044;-68
2023/10/30 15:33:56;;;;;;;1.75;0.60;;;;;;;14.07;61.69;98113.09;10487298;28;20507;-68
2023/10/30 15:38:58;;;;;;;1.27;0.65;;;;;;;14.01;62.30;98118.97;10438972;28;20048;-67
2023/10/30 15:44:03;;;;;;;0.70;0.55;;;;;;;13.95;62.14;98114.34;10452108;28;20060;-69
2023/10/30 15:49:05;;;;;;;2.63;0.73;;;;;;;13.94;62.40;98107.47;10449621;28;20041;-69
2023/10/30 15:54:08;;;;;;;0.70;0.60;;;;;;;13.88;63.04;98108.09;10457311;28;20151;-69
2023/10/30 15:59:15;;;;;;;1.50;0.88;;;;;;;13.82;63.37;98095.59;10458270;28;20557;-67
2023/10/30 16:04:17;;;;;;;1.75;0.88;;;;;;;13.93;63.41;98093.50;10454354;28;20135;-68
2023/10/30 16:09:20;;;;;;;3.35;1.23;;;;;;;13.89;63.88;98099.22;10448120;28;20047;-62
2023/10/30 16:14:22;;;;;;;4.63;1.70;;;;;;;13.84;64.42;98083.91;10451753;28;20044;-62
2023/10/30 16:19:25;;;;;;;4.22;1.15;;;;;;;13.69;64.48;98086.31;10456627;28;20454;-62
2023/10/30 16:24:27;;;;;;;2.25;0.95;;;;;;;13.49;64.95;98070.94;10457595;28;20052;-62
2023/10/30 16:29:30;;;;;;;1.55;0.90;;;;;;;13.45;65.21;98072.22;10461763;28;20557;-62
2023/10/30 16:34:32;;;;;;;2.58;1.15;;;;;;;13.55;65.34;98088.69;10458574;28;20060;-62
2023/10/30 16:39:34;;;;;;;1.65;0.98;;;;;;;13.66;65.33;98088.41;10456716;28;20053;-62
2023/10/30 16:44:38;;;;;;;1.60;0.98;;;;;;;13.53;65.45;98078.34;10460124;28;20053;-63
2023/10/30 16:49:40;;;;;;;2.70;0.63;;;;;;;13.47;66.04;98073.72;10453622;28;20389;-62
2023/10/30 16:54:43;;;;;;;1.42;0.80;;;;;;;13.51;66.35;98076.84;10449697;28;20052;-63
2023/10/30 16:59:45;;;;;;;1.50;1.00;;;;;;;13.46;66.38;98086.97;10419009;28;20147;-62
2023/10/30 17:04:49;;;;;;;2.35;1.20;;;;;;;13.53;66.44;98086.22;10442404;28;20051;-62
2023/10/30 17:09:51;;;;;;;1.45;1.08;;;;;;;13.48;67.24;98088.47;10426160;28;20048;-62
2023/10/30 17:14:53;;;;;;;2.17;1.20;;;;;;;13.51;67.23;98089.97;10442710;28;20056;-63
2023/10/30 17:19:57;;;;;;;1.13;1.02;;;;;;;13.56;67.38;98092.94;10445485;28;20044;-62
2023/10/30 17:25:00;;;;;;;2.25;1.25;;;;;;;13.75;66.97;98083.06;10444153;28;20048;-63
2023/10/30 17:30:04;;;;;;;2.35;1.42;;;;;;;13.85;66.63;98077.69;10450161;28;20059;-62
2023/10/30 17:35:07;;;;;;;1.60;1.15;;;;;;;13.86;66.69;98074.06;10446908;28;20041;-63
2023/10/30 17:40:10;;;;;;;1.55;1.33;;;;;;;13.91;66.61;98074.44;10428080;28;20358;-63
2023/10/30 17:45:17;;;;;;;1.88;1.33;;;;;;;13.88;66.73;98068.69;10448747;28;20490;-62
2023/10/30 17:50:20;;;;;;;1.67;1.30;;;;;;;13.92;66.86;98065.59;10445014;28;20052;-63
2023/10/30 17:55:25;;;;;;;2.47;1.10;;;;;;;13.87;66.82;98062.59;10406784;28;20600;-63
2023/10/30 18:00:30;;;;;;;3.03;1.25;;;;;;;13.87;66.85;98062.59;10445043;28;20049;-62
2023/10/30 18:05:35;;;;;;;5.82;1.27;;;;;;;13.85;66.79;98071.59;10445951;28;20080;-63
2023/10/30 18:10:42;;;;;;;3.50;1.08;;;;;;;13.88;66.88;98064.22;10447098;28;20074;-63
2023/10/30 18:15:45;;;;;;;1.75;1.20;;;;;;;13.90;66.71;98058.84;10434909;28;20048;-62
2023/10/30 18:20:47;;;;;;;2.65;0.95;;;;;;;13.88;66.77;98058.97;10447826;28;20086;-62
2023/10/30 18:25:50;;;;;;;1.50;1.10;;;;;;;13.89;66.76;98055.38;10456444;28;20068;-63
2023/10/30 18:30:52;;;;;;;1.60;0.95;;;;;;;13.82;66.89;98051.72;10444796;28;20419;-63
2023/10/30 18:35:55;;;;;;;1.65;1.02;;;;;;;13.77;66.77;98048.75;10423832;28;20403;-62
2023/10/30 18:41:01;;;;;;;2.65;1.23;;;;;;;13.79;66.52;98031.03;10426990;28;20151;-63
2023/10/30 18:46:04;;;;;;;1.65;0.90;;;;;;;13.73;66.37;98029.84;10421371;28;20052;-63
2023/10/30 18:51:11;;;;;;;1.92;1.10;;;;;;;13.72;66.62;98030.00;10441370;28;20132;-62
2023/10/30 18:56:13;;;;;;;2.45;0.77;;;;;;;13.73;66.42;98029.84;10446355;28;20047;-63
2023/10/30 19:01:15;;;;;;;1.48;1.08;;;;;;;13.76;66.45;98031.31;10444582;28;20403;-62
2023/10/30 19:06:18;;;;;;;1.88;1.38;;;;;;;13.72;66.13;98017.69;10442743;28;20052;-62
2023/10/30 19:11:20;;;;;;;1.15;0.80;;;;;;;13.62;66.47;98013.53;10418664;28;20068;-63
2023/10/30 19:16:23;;;;;;;1.83;0.90;;;;;;;13.67;66.05;98011.28;10444079;28;20520;-62
2023/10/30 19:21:25;;;;;;;1.45;0.93;;;;;;;13.60;66.19;98012.88;10448693;28;20075;-62
2023/10/30 19:26:28;;;;;;;0.70;0.70;;;;;;;13.52;66.03;98007.56;10448658;28;20645;-63
2023/10/30 19:31:32;;;;;;;1.33;1.08;;;;;;;13.51;66.35;98000.69;10446873;28;20048;-62
2023/10/30 19:36:36;;;;;;;3.65;1.42;;;;;;;13.47;66.89;98036.94;10449531;28;20048;-63
2023/10/30 19:41:42;;;;;;;3.35;1.45;;;;;;;13.29;67.61;98043.19;10445631;28;20060;-62
2023/10/30 19:46:47;;;;;;;2.45;1.30;;;;;;;13.35;67.37;98040.75;10461591;28;20056;-63
2023/10/30 19:51:51;;;;;;;3.38;1.95;;;;;;;13.50;67.10;98041.03;10422408;28;20053;-63
2023/10/30 19:57:15;;;;;;;1.65;1.10;;;;;;;13.58;67.17;98028.78;10452400;28;20377;-63
2023/10/30 20:02:38;;;;;;;3.05;1.70;;;;;;;13.67;67.10;98035.75;10451003;28;20138;-63
2023/10/30 20:07:45;;;;;;;2.05;1.25;;;;;;;13.67;67.05;98048.03;10443714;28;20037;-63
2023/10/30 20:12:47;;;;;;;2.65;1.23;;;;;;;13.69;66.99;98044.28;10448056;28;20709;-63
2023/10/30 20:17:49;;;;;;;4.93;1.42;;;;;;;13.54;67.40;98039.75;10448049;28;20052;-63
2023/10/30 20:22:52;;;;;;;2.08;1.20;;;;;;;13.44;67.35;98046.91;10452063;28;20053;-62
2023/10/30 20:27:54;;;;;;;2.22;1.00;;;;;;;13.44;67.64;98039.03;10450630;28;20044;-64
2023/10/30 20:32:56;;;;;;;3.35;1.85;;;;;;;13.36;67.68;98037.16;10454894;28;20450;-63
2023/10/30 20:37:59;;;;;;;3.85;2.15;;;;;;;13.22;68.21;98037.72;10452144;28;20048;-63
2023/10/30 20:43:01;;;;;;;4.03;1.90;;;;;;;13.25;68.08;98026.09;10459377;28;20041;-64
2023/10/30 20:48:04;;;;;;;3.95;1.80;;;;;;;13.35;67.92;98032.88;10452078;28;20459;-63
2023/10/30 20:53:07;;;;;;;2.20;1.38;;;;;;;13.39;67.71;98023.72;10445326;28;20439;-63
2023/10/30 20:58:09;;;;;;;3.75;1.65;;;;;;;13.39;67.77;98012.41;10437122;28;20040;-64
2023/10/30 21:03:11;;;;;;;3.35;1.55;;;;;;;13.35;68.00;97987.44;10444610;28;20417;-63
2023/10/30 21:08:32;;;;;;;2.25;1.63;;;;;;;13.37;68.00;97985.47;10437492;28;20346;-63
2023/10/30 21:13:54;;;;;;;4.63;1.45;;;;;;;13.31;67.92;97975.59;10440680;28;20056;-63
2023/10/30 21:18:56;;;;;;;3.17;1.60;;;;;;;13.21;68.44;97970.44;10443303;28;20033;-63
2023/10/30 21:23:59;;;;;;;6.20;1.50;;;;;;;13.31;67.97;97973.78;10438148;28;20049;-63
2023/10/30 21:29:02;;;;;;;4.60;2.30;;;;;;;13.28;68.16;97968.03;10442391;28;20415;-63
2023/10/30 21:34:05;;;;;;;3.33;1.70;;;;;;;13.19;68.29;97968.97;10425510;28;20715;-62
2023/10/30 21:39:08;;;;;;;4.65;2.05;;;;;;;13.18;68.37;97969.94;10440747;28;20052;-63
2023/10/30 21:44:12;;;;;;;5.18;2.50;;;;;;;13.17;68.20;97986.69;10442890;28;20053;-62
2023/10/30 21:49:17;;;;;;;5.68;2.08;;;;;;;13.18;68.40;97977.81;10438027;28;20738;-63
2023/10/30 21:54:20;;;;;;;2.28;1.08;;;;;;;13.27;68.27;97980.31;10447110;28;20517;-63
2023/10/30 21:59:23;;;;;;;4.18;1.70;;;;;;;13.35;68.15;97976.94;10443156;28;20886;-63
2023/10/30 22:04:25;;;;;;;2.63;1.23;;;;;;;13.41;67.99;97977.13;10435259;28;20052;-62
2023/10/30 22:09:28;;;;;;;6.82;3.22;;;;;;;13.44;67.92;97978.66;10437539;28;20508;-62
2023/10/30 22:14:30;;;;;;;2.20;1.40;;;;;;;13.49;67.75;97971.13;10439483;28;20492;-62
2023/10/30 22:19:32;;;;;;;3.63;1.50;;;;;;;13.39;67.92;97971.19;10423043;28;20504;-62
2023/10/30 22:24:34;;;;;;;6.00;2.60;;;;;;;13.40;68.02;97964.16;10440083;28;20053;-62
2023/10/30 22:29:37;;;;;;;7.80;2.38;;;;;;;13.44;67.92;97968.97;10440953;28;20036;-63
2023/10/30 22:34:40;;;;;;;3.55;1.77;;;;;;;13.41;67.61;97977.13;10441731;28;20043;-63
2023/10/30 22:39:42;;;;;;;4.53;1.30;;;;;;;13.34;67.91;97972.66;10435325;28;20298;-62
2023/10/30 22:44:44;;;;;;;2.85;1.67;;;;;;;13.30;67.63;97976.56;10446593;28;20089;-62
2023/10/30 22:49:46;;;;;;;1.73;0.95;;;;;;;13.24;67.84;97983.28;10444312;28;20037;-62
2023/10/30 22:54:49;;;;;;;0.70;0.70;;;;;;;13.25;67.45;97995.41;10455892;28;20055;-63
2023/10/30 22:59:51;;;;;;;0.63;0.60;;;;;;;13.26;67.33;98001.50;10428727;28;20519;-62
2023/10/30 23:04:54;;;;;;;1.52;0.90;;;;;;;13.17;66.96;98002.44;10459422;28;20706;-63
2023/10/30 23:09:56;;;;;;;1.35;0.88;;;;;;;13.20;67.09;98007.34;10430061;28;20448;-62
2023/10/30 23:15:01;;;;;;;1.13;0.70;;;;;;;13.18;66.83;98020.66;10447078;28;20056;-62
2023/10/30 23:20:04;;;;;;;0.98;0.65;;;;;;;13.10;66.56;98027.63;10439675;28;20053;-62
2023/10/30 23:25:07;;;;;;;2.92;0.57;;;;;;;12.98;66.61;98047.22;10445255;28;20049;-63
2023/10/30 23:30:10;;;;;;;0.40;0.40;;;;;;;12.94;66.38;98031.78;10449437;28;20181;-61
2023/10/30 23:35:13;;;;;;;0.47;0.47;;;;;;;12.78;65.94;98030.84;10440470;28;20589;-61
2023/10/30 23:40:15;;;;;;;0.50;0.50;;;;;;;12.68;65.66;98038.78;10451009;28;20102;-61